createdAt,value
2022-11-30T00:00:32.665Z,3.20
2022-11-30T00:04:32.810Z,3.10
2022-11-30T00:08:33.001Z,3.20
2022-11-30T00:12:33.385Z,3.20
2022-11-30T00:16:36.115Z,3.20
2022-11-30T00:20:36.272Z,3.20
2022-11-30T00:24:36.261Z,3.20
2022-11-30T00:28:38.569Z,3.20
2022-11-30T00:32:41.321Z,3.20
2022-11-30T00:36:41.752Z,3.20
2022-11-30T00:40:41.786Z,3.10
2022-11-30T00:44:43.716Z,3.10
2022-11-30T00:48:46.741Z,3.10
2022-11-30T00:52:46.889Z,3.10
2022-11-30T00:56:47.321Z,3.10
2022-11-30T01:00:47.556Z,3.00
2022-11-30T01:04:50.575Z,3.00
2022-11-30T01:08:50.768Z,3.00
2022-11-30T01:12:50.922Z,2.90
2022-11-30T01:16:56.188Z,2.90
2022-11-30T01:20:59.164Z,2.90
2022-11-30T01:24:59.263Z,2.80
2022-11-30T01:28:59.380Z,2.80
2022-11-30T01:33:04.019Z,2.90
2022-11-30T01:37:06.745Z,2.90
2022-11-30T01:41:08.892Z,2.80
2022-11-30T01:45:15.340Z,2.80
2022-11-30T01:49:23.945Z,2.80
2022-11-30T01:53:27.714Z,2.80
2022-11-30T01:57:34.226Z,2.70
2022-11-30T02:01:34.515Z,2.70
2022-11-30T02:05:37.714Z,2.70
2022-11-30T02:09:46.229Z,2.70
2022-11-30T02:14:08.852Z,2.70
2022-11-30T02:18:16.155Z,2.70
2022-11-30T02:22:35.075Z,2.70
2022-11-30T02:27:07.730Z,2.70
2022-11-30T02:31:19.909Z,2.70
2022-11-30T02:35:25.325Z,2.70
2022-11-30T02:39:25.648Z,2.70
2022-11-30T02:43:30.931Z,2.80
2022-11-30T02:47:43.284Z,2.80
2022-11-30T02:51:46.762Z,2.80
2022-11-30T02:55:46.884Z,2.70
2022-11-30T02:59:47.248Z,2.70
2022-11-30T03:03:49.943Z,2.70
2022-11-30T03:07:50.063Z,2.70
2022-11-30T03:11:50.274Z,2.70
2022-11-30T03:15:50.559Z,2.80
2022-11-30T03:19:53.384Z,2.70
2022-11-30T03:23:53.574Z,2.80
2022-11-30T03:27:53.627Z,2.70
2022-11-30T03:31:53.731Z,2.70
2022-11-30T03:36:05.402Z,2.60
2022-11-30T03:40:05.967Z,2.60
2022-11-30T03:44:06.290Z,2.70
2022-11-30T03:48:06.855Z,2.70
2022-11-30T03:52:09.551Z,2.70
2022-11-30T03:56:12.529Z,2.70
2022-11-30T04:00:15.141Z,2.60
2022-11-30T04:04:15.812Z,2.80
2022-11-30T04:08:18.483Z,2.70
2022-11-30T04:12:18.560Z,2.70
2022-11-30T04:16:18.603Z,2.60
2022-11-30T04:20:19.016Z,2.70
2022-11-30T04:24:21.705Z,2.60
2022-11-30T04:28:22.107Z,2.60
2022-11-30T04:32:22.142Z,2.60
2022-11-30T04:36:23.710Z,2.60
2022-11-30T04:40:26.609Z,2.60
2022-11-30T04:44:26.729Z,2.60
2022-11-30T04:48:27.205Z,2.60
2022-11-30T04:52:27.317Z,2.60
2022-11-30T04:56:29.989Z,2.60
2022-11-30T05:00:30.430Z,2.70
2022-11-30T05:04:30.768Z,2.70
2022-11-30T05:08:31.020Z,2.70
2022-11-30T05:12:33.951Z,2.60
2022-11-30T05:16:34.078Z,2.60
2022-11-30T05:20:34.253Z,2.60
2022-11-30T05:24:34.418Z,2.70
2022-11-30T05:28:37.081Z,2.60
2022-11-30T05:32:37.823Z,2.50
2022-11-30T05:36:37.969Z,2.50
2022-11-30T05:40:38.193Z,2.50
2022-11-30T05:44:40.931Z,2.50
2022-11-30T05:48:41.414Z,2.50
2022-11-30T05:52:41.554Z,2.50
2022-11-30T05:56:41.654Z,2.50
2022-11-30T06:00:44.354Z,2.50
2022-11-30T06:04:44.525Z,2.50
2022-11-30T06:08:45.128Z,2.50
2022-11-30T06:12:45.206Z,2.50
2022-11-30T06:16:48.016Z,2.50
2022-11-30T06:20:48.787Z,2.50
2022-11-30T06:24:49.267Z,2.50
2022-11-30T06:28:49.543Z,2.50
2022-11-30T06:32:54.509Z,2.50
2022-11-30T06:36:54.549Z,2.50
2022-11-30T06:40:54.978Z,2.60
2022-11-30T06:44:55.103Z,2.60
2022-11-30T06:48:58.208Z,2.50
2022-11-30T06:52:59.495Z,2.50
2022-11-30T06:56:59.581Z,2.50
2022-11-30T07:00:59.728Z,2.50
2022-11-30T07:05:02.483Z,2.50
2022-11-30T07:09:02.628Z,2.50
2022-11-30T07:13:02.906Z,2.50
2022-11-30T07:17:04.817Z,2.50
2022-11-30T07:21:09.036Z,2.40
2022-11-30T07:25:22.972Z,2.40
2022-11-30T07:29:23.056Z,2.40
2022-11-30T07:33:23.156Z,2.40
2022-11-30T07:37:25.815Z,2.40
2022-11-30T07:41:25.966Z,2.40
2022-11-30T07:45:26.278Z,2.40
2022-11-30T07:49:26.385Z,2.40
2022-11-30T07:53:29.071Z,2.30
2022-11-30T07:57:29.135Z,2.40
2022-11-30T08:01:32.603Z,2.30
2022-11-30T08:05:33.249Z,2.30
2022-11-30T08:09:35.940Z,2.40
2022-11-30T08:13:36.666Z,2.40
2022-11-30T08:17:36.784Z,2.50
2022-11-30T08:21:38.260Z,2.60
2022-11-30T08:25:41.355Z,2.50
2022-11-30T08:29:41.425Z,2.60
2022-11-30T08:33:42.055Z,2.60
2022-11-30T08:37:42.370Z,2.70
2022-11-30T08:41:45.132Z,2.80
2022-11-30T08:45:45.268Z,2.70
2022-11-30T08:49:45.396Z,2.80
2022-11-30T08:53:49.076Z,2.70
2022-11-30T08:57:51.838Z,2.70
2022-11-30T09:01:51.854Z,2.60
2022-11-30T09:05:51.981Z,2.60
2022-11-30T09:09:52.101Z,2.60
2022-11-30T09:13:57.445Z,2.50
2022-11-30T09:17:57.531Z,2.40
2022-11-30T09:21:57.631Z,2.30
2022-11-30T09:25:59.877Z,2.40
2022-11-30T09:30:02.772Z,2.50
2022-11-30T09:34:02.826Z,2.50
2022-11-30T09:38:02.939Z,2.60
2022-11-30T09:42:35.403Z,2.50
2022-11-30T09:46:46.387Z,2.60
2022-11-30T09:50:49.674Z,2.60
2022-11-30T09:54:51.057Z,2.60
2022-11-30T09:58:58.799Z,2.70
2022-11-30T10:03:06.845Z,2.70
2022-11-30T10:07:27.742Z,2.90
2022-11-30T10:11:46.610Z,2.90
2022-11-30T10:16:05.539Z,2.90
2022-11-30T10:21:01.381Z,2.90
2022-11-30T10:25:18.486Z,2.90
2022-11-30T10:29:27.701Z,3.00
2022-11-30T10:33:38.705Z,3.00
2022-11-30T10:37:44.154Z,3.00
2022-11-30T10:41:52.088Z,2.90
2022-11-30T10:45:53.937Z,2.90
2022-11-30T10:49:55.546Z,2.80
2022-11-30T10:54:00.851Z,2.70
2022-11-30T10:58:13.272Z,2.70
2022-11-30T11:02:41.821Z,2.70
2022-11-30T11:06:49.856Z,2.70
2022-11-30T11:10:54.129Z,2.70
2022-11-30T11:15:16.047Z,2.90
2022-11-30T11:19:40.303Z,2.80
2022-11-30T11:23:44.035Z,2.80
2022-11-30T11:27:54.149Z,2.90
2022-11-30T11:31:54.381Z,2.90
2022-11-30T11:35:57.171Z,2.80
2022-11-30T11:40:08.777Z,2.90
2022-11-30T11:44:25.945Z,2.80
2022-11-30T11:48:38.715Z,2.80
2022-11-30T11:52:38.939Z,2.90
2022-11-30T11:56:40.462Z,2.90
2022-11-30T12:00:43.911Z,2.70
2022-11-30T12:04:49.757Z,2.60
2022-11-30T12:08:58.752Z,2.70
2022-11-30T12:13:01.070Z,2.70
2022-11-30T12:17:29.609Z,2.70
2022-11-30T12:21:47.853Z,2.80
2022-11-30T12:25:58.952Z,2.70
2022-11-30T12:30:12.506Z,2.70
2022-11-30T12:34:28.330Z,2.60
2022-11-30T12:38:42.774Z,2.70
2022-11-30T12:42:54.860Z,2.70
2022-11-30T12:47:08.276Z,2.70
2022-11-30T12:51:29.340Z,2.60
2022-11-30T12:55:43.046Z,2.50
2022-11-30T12:59:53.935Z,2.40
2022-11-30T13:04:07.770Z,2.50
2022-11-30T13:08:23.026Z,2.50
2022-11-30T13:12:36.175Z,2.50
2022-11-30T13:16:39.228Z,2.30
2022-11-30T13:20:52.357Z,2.40
2022-11-30T13:25:06.022Z,2.30
2022-11-30T13:29:27.180Z,2.20
2022-11-30T13:33:50.928Z,2.20
2022-11-30T13:38:36.435Z,2.10
2022-11-30T13:42:39.759Z,2.10
2022-11-30T13:46:40.350Z,2.20
2022-11-30T13:50:43.100Z,2.10
2022-11-30T13:54:47.101Z,2.20
2022-11-30T13:59:41.412Z,2.20
2022-11-30T14:03:49.025Z,2.10
2022-11-30T14:08:30.082Z,2.10
2022-11-30T14:13:00.505Z,2.20
2022-11-30T14:17:01.505Z,2.10
2022-11-30T14:21:15.347Z,2.10
2022-11-30T14:25:19.331Z,2.10
2022-11-30T14:29:24.640Z,2.10
2022-11-30T14:33:34.698Z,2.00
2022-11-30T14:37:46.177Z,1.90
2022-11-30T14:41:46.269Z,1.90
2022-11-30T14:46:04.389Z,1.80
2022-11-30T14:50:09.297Z,1.90
2022-11-30T14:54:26.800Z,1.90
2022-11-30T14:58:39.044Z,1.90
2022-11-30T15:02:41.766Z,1.90
2022-11-30T15:06:44.265Z,1.80
2022-11-30T15:10:47.518Z,1.80
2022-11-30T15:15:07.840Z,1.80
2022-11-30T15:19:25.547Z,1.80
2022-11-30T15:23:26.496Z,1.80
2022-11-30T15:27:29.410Z,1.80
2022-11-30T15:31:37.409Z,1.80
2022-11-30T15:36:04.939Z,1.80
2022-11-30T15:40:02.546Z,1.80
2022-11-30T15:44:05.362Z,1.80
2022-11-30T15:48:07.129Z,1.90
2022-11-30T15:52:19.425Z,1.80
2022-11-30T15:56:27.897Z,1.80
2022-11-30T16:00:32.000Z,1.80
2022-11-30T16:04:52.641Z,1.80
2022-11-30T16:08:54.422Z,1.70
2022-11-30T16:12:57.056Z,1.80
2022-11-30T16:17:05.463Z,1.80
2022-11-30T16:21:09.270Z,1.70
2022-11-30T16:25:15.822Z,1.70
2022-11-30T16:29:15.945Z,1.70
2022-11-30T16:33:22.603Z,1.80
2022-11-30T16:37:22.698Z,1.80
2022-11-30T16:41:26.521Z,1.80
2022-11-30T16:45:29.373Z,1.80
2022-11-30T16:49:32.112Z,1.80
2022-11-30T16:53:32.226Z,1.70
2022-11-30T16:57:32.242Z,1.70
2022-11-30T17:01:36.881Z,1.80
2022-11-30T17:05:40.164Z,1.70
2022-11-30T17:09:40.263Z,1.70
2022-11-30T17:13:40.336Z,1.70
2022-11-30T17:17:40.423Z,1.70
2022-11-30T17:21:45.043Z,1.70
2022-11-30T17:25:45.242Z,1.70
2022-11-30T17:29:45.316Z,1.80
2022-11-30T17:33:48.396Z,1.80
2022-11-30T17:37:51.523Z,1.80
2022-11-30T17:41:51.733Z,1.80
2022-11-30T17:45:52.473Z,1.70
2022-11-30T17:49:53.421Z,1.70
2022-11-30T17:53:56.182Z,1.70
2022-11-30T17:57:56.477Z,1.70
2022-11-30T18:01:56.644Z,1.70
2022-11-30T18:05:56.843Z,1.70
2022-11-30T18:10:01.878Z,1.80
2022-11-30T18:14:05.007Z,1.80
2022-11-30T18:18:05.383Z,1.70
2022-11-30T18:22:05.603Z,1.80
2022-11-30T18:26:11.562Z,1.70
2022-11-30T18:30:13.611Z,1.80
2022-11-30T18:34:14.521Z,1.80
2022-11-30T18:38:15.756Z,1.80
2022-11-30T18:42:18.625Z,1.90
2022-11-30T18:46:18.791Z,1.80
2022-11-30T18:50:19.072Z,1.80
2022-11-30T18:54:19.406Z,1.80
2022-11-30T18:58:22.158Z,1.70
2022-11-30T19:02:22.248Z,1.70
2022-11-30T19:06:24.872Z,1.70
2022-11-30T19:10:24.971Z,1.70
2022-11-30T19:14:27.942Z,1.70
2022-11-30T19:18:27.984Z,1.80
2022-11-30T19:22:31.281Z,1.80
2022-11-30T19:26:31.799Z,1.80
2022-11-30T19:30:34.733Z,1.80
2022-11-30T19:34:35.202Z,1.80
2022-11-30T19:38:35.891Z,1.80
2022-11-30T19:42:36.175Z,1.70
2022-11-30T19:46:39.034Z,1.70
2022-11-30T19:50:40.668Z,1.70
2022-11-30T19:54:40.772Z,1.80
2022-11-30T19:58:41.033Z,1.80
2022-11-30T20:02:43.928Z,2.00
2022-11-30T20:06:44.096Z,1.90
2022-11-30T20:10:44.735Z,1.90
2022-11-30T20:14:45.067Z,1.90
2022-11-30T20:18:55.003Z,2.00
2022-11-30T20:22:55.171Z,1.90
2022-11-30T20:26:55.690Z,1.80
2022-11-30T20:30:55.873Z,1.80
2022-11-30T20:34:58.541Z,1.70
2022-11-30T20:38:58.754Z,1.70
2022-11-30T20:42:58.895Z,1.70
2022-11-30T20:46:59.132Z,1.70
2022-11-30T20:51:30.285Z,1.70
2022-11-30T20:55:31.781Z,1.70
2022-11-30T20:59:32.318Z,1.60
2022-11-30T21:03:32.462Z,1.60
2022-11-30T21:07:35.442Z,1.70
2022-11-30T21:11:35.664Z,1.70
2022-11-30T21:15:35.991Z,1.70
2022-11-30T21:19:36.156Z,1.70
2022-11-30T21:23:39.276Z,1.70
2022-11-30T21:27:39.408Z,1.80
2022-11-30T21:31:39.932Z,1.70
2022-11-30T21:35:41.318Z,1.70
2022-11-30T21:39:44.075Z,1.70
2022-11-30T21:43:48.144Z,1.70
2022-11-30T21:47:48.235Z,1.80
2022-11-30T21:51:48.533Z,1.80
2022-11-30T21:55:55.591Z,1.80
2022-11-30T21:59:56.155Z,1.80
2022-11-30T22:03:57.262Z,1.80
2022-11-30T22:07:57.540Z,1.80
2022-11-30T22:12:00.467Z,1.80
2022-11-30T22:16:02.109Z,1.80
2022-11-30T22:20:02.255Z,1.80
2022-11-30T22:24:04.804Z,1.80
2022-11-30T22:28:07.708Z,1.80
2022-11-30T22:32:08.299Z,1.90
2022-11-30T22:36:11.139Z,1.90
2022-11-30T22:40:13.881Z,1.80
2022-11-30T22:44:20.368Z,1.80
2022-11-30T22:48:20.410Z,1.80
2022-11-30T22:52:36.423Z,1.70
2022-11-30T22:56:44.309Z,1.70
2022-11-30T23:00:46.985Z,1.70
2022-11-30T23:04:47.019Z,1.70
2022-11-30T23:08:49.302Z,1.70
2022-11-30T23:12:59.630Z,1.70
2022-11-30T23:17:02.797Z,1.80
2022-11-30T23:21:10.657Z,1.80
2022-11-30T23:25:11.905Z,1.80
2022-11-30T23:29:16.318Z,1.80
2022-11-30T23:33:19.013Z,1.80
2022-11-30T23:37:19.534Z,1.70
2022-11-30T23:41:19.895Z,1.80
2022-11-30T23:45:20.286Z,1.70
2022-11-30T23:49:22.967Z,1.60
2022-11-30T23:53:24.476Z,1.50
2022-11-30T23:57:24.869Z,1.40
